createdAt,value
2019-04-01T00:01:56.603Z,84.40
2019-04-01T00:04:25.046Z,84.80
2019-04-01T00:06:53.498Z,84.90
2019-04-01T00:09:21.942Z,85.50
2019-04-01T00:11:52.438Z,85.30
2019-04-01T00:14:21.176Z,85.50
2019-04-01T00:16:49.626Z,85.80
2019-04-01T00:19:18.429Z,85.70
2019-04-01T00:21:46.913Z,86.20
2019-04-01T00:24:15.911Z,86.00
2019-04-01T00:26:44.345Z,86.20
2019-04-01T00:29:12.790Z,86.30
2019-04-01T00:31:41.571Z,86.20
2019-04-01T00:34:10.032Z,86.30
2019-04-01T00:36:38.498Z,86.50
2019-04-01T00:39:06.954Z,86.70
2019-04-01T00:41:37.031Z,87.00
2019-04-01T00:44:07.431Z,87.30
2019-04-01T00:46:35.892Z,87.10
2019-04-01T00:49:04.686Z,87.00
2019-04-01T00:51:33.196Z,86.90
2019-04-01T00:54:01.643Z,86.70
2019-04-01T00:56:30.431Z,86.60
2019-04-01T00:58:58.931Z,86.60
2019-04-01T01:01:27.431Z,86.70
2019-04-01T01:03:55.889Z,86.60
2019-04-01T01:06:24.611Z,86.90
2019-04-01T01:08:53.058Z,86.90
2019-04-01T01:11:21.540Z,86.80
2019-04-01T01:13:50.004Z,86.50
2019-04-01T01:16:18.445Z,86.50
2019-04-01T01:18:46.885Z,86.70
2019-04-01T01:21:15.339Z,86.80
2019-04-01T01:23:43.818Z,87.30
2019-04-01T01:26:12.256Z,87.30
2019-04-01T01:28:40.701Z,87.80
2019-04-01T01:31:09.454Z,87.80
2019-04-01T01:33:38.250Z,88.10
2019-04-01T01:36:07.044Z,87.90
2019-04-01T01:38:35.820Z,88.00
2019-04-01T01:41:04.272Z,88.30
2019-04-01T01:43:32.730Z,88.40
2019-04-01T01:46:01.175Z,88.30
2019-04-01T01:48:29.937Z,88.40
2019-04-01T01:50:58.749Z,88.40
2019-04-01T01:53:27.202Z,88.60
2019-04-01T01:55:55.986Z,88.50
2019-04-01T01:58:24.769Z,88.40
2019-04-01T02:00:55.200Z,88.20
2019-04-01T02:03:23.639Z,87.60
2019-04-01T02:05:52.080Z,87.20
2019-04-01T02:08:20.530Z,87.00
2019-04-01T02:10:48.949Z,87.10
2019-04-01T02:13:20.027Z,87.30
2019-04-01T02:15:47.931Z,87.20
2019-04-01T02:18:18.415Z,87.10
2019-04-01T02:20:47.238Z,87.00
2019-04-01T02:23:16.130Z,87.10
2019-04-01T02:25:44.925Z,87.00
2019-04-01T02:28:13.721Z,87.10
2019-04-01T02:30:42.499Z,87.30
2019-04-01T02:33:10.926Z,87.40
2019-04-01T02:35:39.378Z,87.70
2019-04-01T02:38:08.158Z,87.90
2019-04-01T02:40:36.617Z,88.30
2019-04-01T02:43:05.070Z,88.40
2019-04-01T02:45:33.596Z,88.50
2019-04-01T02:48:02.053Z,88.50
2019-04-01T02:50:30.520Z,88.60
2019-04-01T02:52:58.953Z,88.60
2019-04-01T02:55:27.477Z,88.40
2019-04-01T02:57:56.282Z,88.10
2019-04-01T03:00:24.795Z,88.30
2019-04-01T03:02:53.558Z,88.30
2019-04-01T03:05:22.594Z,88.50
2019-04-01T03:07:51.042Z,88.60
2019-04-01T03:10:19.823Z,88.60
2019-04-01T03:12:48.589Z,89.30
2019-04-01T03:15:17.056Z,89.20
2019-04-01T03:17:45.750Z,88.80
2019-04-01T03:20:14.221Z,89.20
2019-04-01T03:22:42.663Z,89.40
2019-04-01T03:25:11.251Z,89.70
2019-04-01T03:27:40.080Z,90.00
2019-04-01T03:30:08.966Z,90.10
2019-04-01T03:32:44.285Z,90.10
2019-04-01T03:35:08.099Z,90.10
2019-04-01T03:37:36.552Z,90.10
2019-04-01T03:40:07.217Z,90.50
2019-04-01T03:42:35.723Z,90.70
2019-04-01T03:45:05.822Z,91.00
2019-04-01T03:47:34.266Z,90.90
2019-04-01T03:50:02.820Z,90.80
2019-04-01T03:52:31.538Z,90.50
2019-04-01T03:55:00.537Z,90.50
2019-04-01T03:57:29.060Z,90.20
2019-04-01T03:59:57.828Z,90.10
2019-04-01T04:02:26.580Z,90.10
2019-04-01T04:04:55.012Z,90.20
2019-04-01T04:07:23.458Z,90.30
2019-04-01T04:09:52.234Z,90.50
2019-04-01T04:12:20.726Z,90.80
2019-04-01T04:14:51.453Z,91.10
2019-04-01T04:17:19.362Z,91.20
2019-04-01T04:19:47.879Z,90.80
2019-04-01T04:22:17.085Z,90.60
2019-04-01T04:24:46.063Z,90.40
2019-04-01T04:27:14.897Z,90.30
2019-04-01T04:29:43.348Z,90.30
2019-04-01T04:32:11.858Z,90.30
2019-04-01T04:34:40.605Z,90.30
2019-04-01T04:37:09.062Z,90.50
2019-04-01T04:39:37.874Z,90.70
2019-04-01T04:42:06.671Z,91.00
2019-04-01T04:44:35.446Z,91.10
2019-04-01T04:47:03.894Z,91.30
2019-04-01T04:49:32.346Z,91.30
2019-04-01T04:52:00.799Z,91.50
2019-04-01T04:54:29.248Z,91.70
2019-04-01T04:56:58.058Z,91.80
2019-04-01T04:59:26.507Z,91.70
2019-04-01T05:01:54.946Z,91.90
2019-04-01T05:04:24.302Z,92.00
2019-04-01T05:06:53.117Z,92.00
2019-04-01T05:09:21.612Z,91.90
2019-04-01T05:11:50.070Z,91.70
2019-04-01T05:14:18.526Z,91.40
2019-04-01T05:16:47.247Z,91.30
2019-04-01T05:19:16.014Z,91.30
2019-04-01T05:21:45.194Z,91.00
2019-04-01T05:24:14.822Z,91.10
2019-04-01T05:26:45.133Z,91.00
2019-04-01T05:29:15.448Z,91.00
2019-04-01T05:31:46.574Z,91.10
2019-04-01T05:34:16.975Z,91.40
2019-04-01T05:36:47.154Z,91.50
2019-04-01T05:39:16.049Z,91.90
2019-04-01T05:41:45.553Z,92.00
2019-04-01T05:44:14.334Z,91.70
2019-04-01T05:46:42.874Z,91.50
2019-04-01T05:49:11.704Z,91.30
2019-04-01T05:51:40.474Z,91.00
2019-04-01T05:54:08.980Z,90.90
2019-04-01T05:56:37.836Z,91.10
2019-04-01T05:59:06.299Z,91.20
2019-04-01T06:01:36.389Z,92.30
2019-04-01T06:04:05.469Z,92.40
2019-04-01T06:06:33.917Z,92.40
2019-04-01T06:09:02.793Z,92.60
2019-04-01T06:11:31.910Z,92.70
2019-04-01T06:14:00.382Z,92.60
2019-04-01T06:16:28.870Z,92.30
2019-04-01T06:18:57.303Z,92.00
2019-04-01T06:21:25.738Z,91.70
2019-04-01T06:23:54.491Z,91.30
2019-04-01T06:26:22.994Z,90.90
2019-04-01T06:28:51.878Z,90.70
2019-04-01T06:31:20.338Z,90.30
2019-04-01T06:33:48.794Z,89.90
2019-04-01T06:36:17.507Z,89.70
2019-04-01T06:38:46.403Z,89.40
2019-04-01T06:41:14.858Z,88.80
2019-04-01T06:43:43.775Z,88.70
2019-04-01T06:46:12.180Z,88.80
2019-04-01T06:48:40.939Z,88.60
2019-04-01T06:51:09.425Z,88.40
2019-04-01T06:53:38.294Z,88.10
2019-04-01T06:56:06.832Z,88.00
2019-04-01T06:58:36.399Z,88.00
2019-04-01T07:01:04.901Z,87.90
2019-04-01T07:03:34.075Z,87.60
2019-04-01T07:06:02.851Z,87.10
2019-04-01T07:08:31.677Z,86.70
2019-04-01T07:11:00.528Z,86.20
2019-04-01T07:13:29.334Z,85.80
2019-04-01T07:15:57.850Z,85.60
2019-04-01T07:18:26.348Z,85.50
2019-04-01T07:20:54.789Z,85.30
2019-04-01T07:23:23.245Z,84.50
2019-04-01T07:25:51.677Z,84.10
2019-04-01T07:28:20.146Z,83.60
2019-04-01T07:30:48.591Z,83.00
2019-04-01T07:33:17.269Z,82.70
2019-04-01T07:35:46.759Z,82.50
2019-04-01T07:38:16.062Z,82.10
2019-04-01T07:40:44.586Z,81.50
2019-04-01T07:43:14.991Z,81.20
2019-04-01T07:45:43.179Z,81.50
2019-04-01T07:48:12.667Z,81.00
2019-04-01T07:50:41.890Z,80.70
2019-04-01T07:53:10.824Z,79.50
2019-04-01T07:55:39.255Z,79.50
2019-04-01T07:58:07.694Z,79.10
2019-04-01T08:00:36.161Z,79.80
2019-04-01T08:03:04.646Z,79.10
2019-04-01T08:05:34.800Z,78.90
2019-04-01T08:08:03.249Z,77.60
2019-04-01T08:10:31.713Z,77.30
2019-04-01T08:13:00.146Z,77.70
2019-04-01T08:15:28.892Z,76.80
2019-04-01T08:17:57.318Z,77.60
2019-04-01T08:20:27.170Z,78.40
2019-04-01T08:22:55.936Z,77.40
2019-04-01T08:25:26.823Z,76.00
2019-04-01T08:27:55.695Z,75.30
2019-04-01T08:30:24.121Z,75.30
2019-04-01T08:32:53.628Z,75.80
2019-04-01T08:35:23.593Z,74.80
2019-04-01T08:37:52.046Z,74.10
2019-04-01T08:40:20.955Z,73.40
2019-04-01T08:42:49.742Z,72.10
2019-04-01T08:45:18.538Z,72.00
2019-04-01T08:47:46.957Z,71.40
2019-04-01T08:50:16.049Z,70.70
2019-04-01T08:52:44.777Z,70.30
2019-04-01T08:55:13.286Z,71.60
2019-04-01T08:57:41.800Z,69.30
2019-04-01T09:00:11.085Z,69.50
2019-04-01T09:02:39.615Z,69.90
2019-04-01T09:05:08.175Z,68.90
2019-04-01T09:07:36.990Z,69.20
2019-04-01T09:10:07.081Z,67.70
2019-04-01T09:12:35.916Z,69.50
2019-04-01T09:15:05.714Z,68.00
2019-04-01T09:17:34.487Z,69.90
2019-04-01T09:20:02.935Z,69.10
2019-04-01T09:22:31.350Z,69.90
2019-04-01T09:25:00.374Z,68.10
2019-04-01T09:27:29.074Z,68.60
2019-04-01T09:29:57.544Z,67.80
2019-04-01T09:32:25.981Z,68.40
2019-04-01T09:34:56.425Z,67.20
2019-04-01T09:37:24.930Z,67.60
2019-04-01T09:39:53.456Z,67.10
2019-04-01T09:42:22.259Z,64.80
2019-04-01T09:44:50.728Z,65.00
2019-04-01T09:47:21.106Z,66.60
2019-04-01T09:49:49.562Z,65.70
2019-04-01T09:52:18.006Z,65.90
2019-04-01T09:54:46.446Z,65.10
2019-04-01T09:57:18.043Z,66.70
2019-04-01T09:59:45.162Z,65.80
2019-04-01T10:02:13.607Z,65.60
2019-04-01T10:04:42.079Z,64.90
2019-04-01T10:07:20.455Z,64.90
2019-04-01T10:09:48.902Z,64.50
2019-04-01T10:12:30.387Z,62.30
2019-04-01T10:15:01.268Z,63.10
2019-04-01T10:17:29.748Z,63.10
2019-04-01T10:20:00.909Z,63.10
2019-04-01T10:22:30.625Z,62.10
2019-04-01T10:24:59.070Z,63.70
2019-04-01T10:27:27.518Z,62.20
2019-04-01T10:29:56.002Z,61.30
2019-04-01T10:32:24.726Z,61.20
2019-04-01T10:34:53.205Z,61.10
2019-04-01T10:37:21.686Z,61.50
2019-04-01T10:39:50.481Z,59.40
2019-04-01T10:42:19.268Z,58.90
2019-04-01T10:44:47.701Z,59.00
2019-04-01T10:47:19.481Z,59.70
2019-04-01T10:49:48.079Z,59.40
2019-04-01T10:52:16.901Z,58.80
2019-04-01T10:54:45.386Z,59.60
2019-04-01T10:57:13.851Z,59.30
2019-04-01T10:59:42.308Z,58.70
2019-04-01T11:02:10.780Z,59.20
2019-04-01T11:04:39.316Z,60.00
2019-04-01T11:07:07.845Z,60.60
2019-04-01T11:09:38.622Z,59.60
2019-04-01T11:12:07.179Z,60.30
2019-04-01T11:14:35.941Z,61.20
2019-04-01T11:17:04.736Z,60.20
2019-04-01T11:19:33.322Z,60.50
2019-04-01T11:22:01.778Z,60.10
2019-04-01T11:24:30.222Z,60.80
2019-04-01T11:26:58.668Z,60.00
2019-04-01T11:29:27.124Z,59.80
2019-04-01T11:31:55.633Z,60.10
2019-04-01T11:34:24.205Z,60.90
2019-04-01T11:36:53.157Z,59.30
2019-04-01T11:39:22.851Z,60.60
2019-04-01T11:41:51.355Z,60.70
2019-04-01T11:44:20.190Z,59.70
2019-04-01T11:46:48.755Z,58.70
2019-04-01T11:49:17.305Z,58.20
2019-04-01T11:51:46.145Z,57.40
2019-04-01T11:54:14.701Z,56.90
2019-04-01T11:56:48.959Z,58.00
2019-04-01T11:59:18.443Z,56.10
2019-04-01T12:01:47.511Z,58.10
2019-04-01T12:04:19.874Z,56.80
2019-04-01T12:06:48.350Z,56.40
2019-04-01T12:09:20.575Z,57.60
2019-04-01T12:11:50.592Z,57.70
2019-04-01T12:14:19.100Z,57.00
2019-04-01T12:16:50.315Z,56.30
2019-04-01T12:19:20.277Z,55.40
2019-04-01T12:21:49.168Z,55.50
2019-04-01T12:24:17.678Z,54.60
2019-04-01T12:26:47.417Z,53.20
2019-04-01T12:29:16.614Z,55.70
2019-04-01T12:31:45.057Z,55.20
2019-04-01T12:34:13.930Z,56.20
2019-04-01T12:36:42.380Z,56.00
2019-04-01T12:39:11.218Z,54.20
2019-04-01T12:41:39.985Z,53.20
2019-04-01T12:44:08.434Z,55.40
2019-04-01T12:46:36.957Z,52.00
2019-04-01T12:49:11.447Z,55.20
2019-04-01T12:51:39.943Z,54.40
2019-04-01T12:54:08.850Z,53.30
2019-04-01T12:56:37.703Z,54.40
2019-04-01T12:59:06.174Z,52.60
2019-04-01T13:01:34.810Z,52.10
2019-04-01T13:04:04.415Z,53.60
2019-04-01T13:06:33.569Z,52.90
2019-04-01T13:09:02.011Z,53.10
2019-04-01T13:11:30.754Z,52.40
2019-04-01T13:13:59.272Z,52.90
2019-04-01T13:16:28.002Z,52.60
2019-04-01T13:18:56.468Z,51.80
2019-04-01T13:21:25.269Z,53.10
2019-04-01T13:23:53.732Z,53.80
2019-04-01T13:26:22.172Z,52.10
2019-04-01T13:28:50.617Z,51.60
2019-04-01T13:31:19.382Z,50.70
2019-04-01T13:33:48.189Z,51.00
2019-04-01T13:36:16.966Z,50.90
2019-04-01T13:38:45.698Z,50.10
2019-04-01T13:41:15.598Z,50.10
2019-04-01T13:43:44.485Z,48.50
2019-04-01T13:46:12.943Z,48.50
2019-04-01T13:48:56.617Z,46.60
2019-04-01T13:51:11.897Z,46.50
2019-04-01T13:53:40.807Z,45.90
2019-04-01T13:56:10.402Z,45.30
2019-04-01T13:58:39.696Z,44.20
2019-04-01T14:01:08.419Z,44.50
2019-04-01T14:03:36.967Z,44.70
2019-04-01T14:06:05.408Z,43.20
2019-04-01T14:08:33.857Z,44.20
2019-04-01T14:11:05.711Z,44.70
2019-04-01T14:13:32.470Z,42.80
2019-04-01T14:16:01.258Z,43.10
2019-04-01T14:18:29.720Z,42.40
2019-04-01T14:20:58.162Z,41.60
2019-04-01T14:23:26.747Z,41.90
2019-04-01T14:26:07.881Z,42.00
2019-04-01T14:28:42.341Z,43.10
2019-04-01T14:31:10.787Z,42.80
2019-04-01T14:33:39.541Z,41.30
2019-04-01T14:36:08.341Z,41.40
2019-04-01T14:38:36.802Z,39.20
2019-04-01T14:41:05.357Z,39.80
2019-04-01T14:43:33.811Z,39.30
2019-04-01T14:46:02.581Z,38.70
2019-04-01T14:48:31.020Z,39.20
2019-04-01T14:50:59.467Z,39.30
2019-04-01T14:53:28.270Z,40.00
2019-04-01T14:55:56.718Z,40.10
2019-04-01T14:58:25.182Z,39.80
2019-04-01T15:00:53.655Z,41.10
2019-04-01T15:03:22.424Z,42.40
2019-04-01T15:05:50.891Z,41.90
2019-04-01T15:08:19.771Z,41.30
2019-04-01T15:10:48.404Z,40.00
2019-04-01T15:13:16.911Z,40.00
2019-04-01T15:15:54.685Z,40.10
2019-04-01T15:18:42.131Z,40.50
2019-04-01T15:21:11.843Z,39.80
2019-04-01T15:23:40.781Z,39.50
2019-04-01T15:26:09.441Z,39.70
2019-04-01T15:28:37.939Z,39.90
2019-04-01T15:31:07.501Z,40.20
2019-04-01T15:33:36.113Z,40.50
2019-04-01T15:36:04.906Z,40.10
2019-04-01T15:38:33.324Z,41.60
2019-04-01T15:41:01.803Z,43.50
2019-04-01T15:43:30.758Z,45.40
2019-04-01T15:45:59.213Z,46.80
2019-04-01T15:51:26.945Z,47.30
2019-04-01T15:53:55.721Z,48.30
2019-04-01T15:56:25.837Z,49.40
2019-04-01T15:58:54.711Z,47.30
2019-04-01T16:01:23.340Z,46.60
2019-04-01T16:03:51.805Z,45.50
2019-04-01T16:06:21.862Z,45.30
2019-04-01T16:08:53.197Z,42.90
2019-04-01T16:11:27.339Z,43.20
2019-04-01T16:14:01.889Z,44.20
2019-04-01T16:16:30.515Z,44.40
2019-04-01T16:19:00.055Z,44.70
2019-04-01T16:21:31.317Z,45.20
2019-04-01T16:23:58.834Z,44.20
2019-04-01T16:26:27.377Z,44.20
2019-04-01T16:28:55.826Z,45.20
2019-04-01T16:31:24.269Z,45.60
2019-04-01T16:33:53.006Z,45.40
2019-04-01T16:36:21.485Z,46.80
2019-04-01T16:38:49.941Z,47.90
2019-04-01T16:41:18.763Z,48.40
2019-04-01T16:43:47.532Z,47.80
2019-04-01T16:46:16.020Z,47.60
2019-04-01T16:48:46.486Z,47.00
2019-04-01T16:51:15.060Z,47.10
2019-04-01T16:53:44.476Z,47.70
2019-04-01T16:56:13.265Z,47.70
2019-04-01T16:58:41.752Z,47.60
2019-04-01T17:01:10.762Z,47.30
2019-04-01T17:03:39.285Z,47.80
2019-04-01T17:06:07.783Z,48.50
2019-04-01T17:08:36.530Z,49.50
2019-04-01T17:11:05.425Z,50.60
2019-04-01T17:13:33.866Z,52.00
2019-04-01T17:16:02.350Z,51.70
2019-04-01T17:18:31.761Z,51.90
2019-04-01T17:21:00.226Z,52.10
2019-04-01T17:23:30.590Z,52.60
2019-04-01T17:25:59.398Z,53.70
2019-04-01T17:28:27.895Z,54.10
2019-04-01T17:30:56.742Z,55.10
2019-04-01T17:33:25.718Z,55.20
2019-04-01T17:35:54.539Z,56.20
2019-04-01T17:38:23.140Z,57.20
2019-04-01T17:40:51.637Z,57.90
2019-04-01T17:43:22.977Z,58.40
2019-04-01T17:45:50.610Z,59.10
2019-04-01T17:48:19.103Z,59.30
2019-04-01T17:50:47.661Z,60.20
2019-04-01T17:53:16.102Z,60.00
2019-04-01T17:55:45.735Z,60.80
2019-04-01T17:58:15.497Z,60.90
2019-04-01T18:00:46.367Z,61.10
2019-04-01T18:03:14.835Z,61.50
2019-04-01T18:05:43.646Z,61.70
2019-04-01T18:08:12.494Z,62.10
2019-04-01T18:10:40.962Z,62.20
2019-04-01T18:13:09.410Z,62.50
2019-04-01T18:15:37.861Z,62.70
2019-04-01T18:18:06.372Z,62.80
2019-04-01T18:20:34.834Z,63.40
2019-04-01T18:23:03.608Z,63.60
2019-04-01T18:25:32.066Z,63.70
2019-04-01T18:28:00.587Z,63.90
2019-04-01T18:30:29.457Z,64.40
2019-04-01T18:32:57.909Z,64.90
2019-04-01T18:35:26.338Z,65.20
2019-04-01T18:37:54.836Z,65.30
2019-04-01T18:40:32.446Z,65.40
2019-04-01T18:42:53.806Z,65.50
2019-04-01T18:45:22.416Z,65.50
2019-04-01T18:47:51.184Z,66.00
2019-04-01T18:50:19.959Z,66.00
2019-04-01T18:52:48.742Z,66.30
2019-04-01T18:55:17.538Z,66.60
2019-04-01T18:57:46.318Z,66.90
2019-04-01T19:00:15.301Z,67.00
2019-04-01T19:02:43.747Z,67.40
2019-04-01T19:05:12.642Z,67.80
2019-04-01T19:07:41.462Z,68.00
2019-04-01T19:10:11.810Z,68.60
2019-04-01T19:12:40.402Z,69.30
2019-04-01T19:15:10.186Z,69.60
2019-04-01T19:17:39.326Z,69.80
2019-04-01T19:20:08.105Z,70.10
2019-04-01T19:22:36.571Z,69.90
2019-04-01T19:25:08.862Z,69.90
2019-04-01T19:27:37.325Z,70.50
2019-04-01T19:30:07.014Z,70.80
2019-04-01T19:32:35.545Z,71.40
2019-04-01T19:35:05.524Z,72.00
2019-04-01T19:37:39.769Z,72.40
2019-04-01T19:40:09.238Z,72.70
2019-04-01T19:42:39.683Z,73.00
2019-04-01T19:45:11.160Z,73.20
2019-04-01T19:47:40.541Z,73.40
2019-04-01T19:50:09.857Z,73.60
2019-04-01T19:52:38.690Z,73.90
2019-04-01T19:55:07.564Z,74.30
2019-04-01T19:57:36.011Z,74.30
2019-04-01T20:00:07.842Z,74.40
2019-04-01T20:02:36.310Z,75.30
2019-04-01T20:05:06.900Z,75.20
2019-04-01T20:07:35.346Z,75.20
2019-04-01T20:10:05.464Z,75.50
2019-04-01T20:12:33.958Z,75.70
2019-04-01T20:15:02.388Z,75.80
2019-04-01T20:17:31.161Z,76.00
2019-04-01T20:19:59.608Z,76.00
2019-04-01T20:22:28.041Z,76.80
2019-04-01T20:24:56.510Z,76.90
2019-04-01T20:27:24.936Z,76.90
2019-04-01T20:29:53.382Z,77.10
2019-04-01T20:32:22.134Z,77.40
2019-04-01T20:34:56.752Z,77.40
2019-04-01T20:37:21.089Z,77.30
2019-04-01T20:39:49.925Z,77.60
2019-04-01T20:42:18.345Z,77.80
2019-04-01T20:44:46.849Z,78.00
2019-04-01T20:47:15.303Z,77.90
2019-04-01T20:49:44.154Z,78.00
2019-04-01T20:52:12.934Z,78.20
2019-04-01T20:54:41.722Z,78.30
2019-04-01T20:57:10.434Z,78.50
2019-04-01T20:59:39.055Z,78.70
2019-04-01T21:02:07.829Z,78.80
2019-04-01T21:04:46.602Z,79.30
2019-04-01T21:07:15.014Z,79.30
2019-04-01T21:09:44.234Z,79.50
2019-04-01T21:12:14.082Z,79.60
2019-04-01T21:14:42.533Z,79.80
2019-04-01T21:17:10.971Z,80.00
2019-04-01T21:19:39.440Z,80.20
2019-04-01T21:22:08.487Z,80.30
2019-04-01T21:24:37.036Z,80.30
2019-04-01T21:27:05.630Z,80.60
2019-04-01T21:29:34.363Z,80.70
2019-04-01T21:32:03.166Z,80.70
2019-04-01T21:34:31.631Z,80.80
2019-04-01T21:37:00.129Z,80.90
2019-04-01T21:39:30.045Z,81.10
2019-04-01T21:41:58.728Z,81.30
2019-04-01T21:44:27.646Z,81.40
2019-04-01T21:46:56.081Z,81.70
2019-04-01T21:49:24.553Z,81.70
2019-04-01T21:51:52.980Z,82.10
2019-04-01T21:54:21.724Z,82.00
2019-04-01T21:56:51.930Z,82.10
2019-04-01T21:59:20.546Z,81.90
2019-04-01T22:01:48.974Z,81.70
2019-04-01T22:04:19.134Z,81.90
2019-04-01T22:06:47.586Z,82.20
2019-04-01T22:09:16.624Z,82.40
2019-04-01T22:11:45.491Z,82.20
2019-04-01T22:14:13.950Z,82.30
2019-04-01T22:16:42.383Z,82.50
2019-04-01T22:19:11.298Z,82.50
2019-04-01T22:21:40.789Z,82.60
2019-04-01T22:24:09.825Z,82.80
2019-04-01T22:26:38.349Z,82.90
2019-04-01T22:29:07.134Z,83.10
2019-04-01T22:31:35.881Z,83.00
2019-04-01T22:34:04.327Z,83.10
2019-04-01T22:36:32.753Z,83.20
2019-04-01T22:39:01.218Z,83.20
2019-04-01T22:41:30.039Z,83.20
2019-04-01T22:43:58.538Z,83.20
2019-04-01T22:46:27.276Z,83.40
2019-04-01T22:48:56.060Z,83.70
2019-04-01T22:51:24.498Z,83.80
2019-04-01T22:53:53.322Z,83.70
2019-04-01T22:56:22.126Z,83.90
2019-04-01T22:58:51.262Z,83.90
2019-04-01T23:01:19.981Z,84.00
2019-04-01T23:03:48.442Z,84.30
2019-04-01T23:06:16.894Z,85.10
2019-04-01T23:08:45.755Z,85.50
2019-04-01T23:11:14.235Z,85.80
2019-04-01T23:13:42.668Z,85.80
2019-04-01T23:16:12.126Z,85.90
2019-04-01T23:18:41.704Z,86.30
2019-04-01T23:21:10.510Z,86.20
2019-04-01T23:23:39.286Z,86.00
2019-04-01T23:26:07.764Z,85.90
2019-04-01T23:28:36.544Z,86.00
2019-04-01T23:31:05.357Z,86.00
2019-04-01T23:33:34.118Z,86.20
2019-04-01T23:36:02.561Z,86.40
2019-04-01T23:38:31.002Z,86.90
2019-04-01T23:41:01.073Z,86.90
2019-04-01T23:43:29.605Z,86.90
2019-04-01T23:45:58.078Z,86.90
2019-04-01T23:48:26.545Z,86.60
2019-04-01T23:50:55.344Z,86.50
2019-04-01T23:53:24.109Z,86.70
2019-04-01T23:55:52.894Z,86.90
2019-04-01T23:58:22.401Z,87.10
